Terminal Aerodrome Forecast
Issued by NWS

Home | Current Version | Previous Version | Text Only | Print | Product List | Glossary On
Versions: 1 2 3 4 5 6 7 8 9 10 11 12 13 14 15 16 17
000
FTUS46 KMTR 011702 AAC
TAFSNS
TAF AMD
KSNS 011702Z 0117/0212 19003KT P6SM OVC013
     FM011900 29012KT P6SM FEW012
     FM020300 29009KT P6SM BKN009
     FM020500 29006KT P6SM OVC007=

USA.gov is the U.S. government's official web portal to all federal, state and local government web resources and services.